Terminal Aerodrome Forecast
Issued by NWS Wilmington, OH

Current Version | Previous Version | Graphics & Text | Print | Product List | Glossary On
Versions: 1 2 3 4 5 6 7 8 9 10 11 12 13 14 15 16 17 18 19
000
FTUS41 KILN 301100
TAFCMH
TAF
KCMH 301134Z 3012/0112 04010KT P6SM VCSH BKN060
      TEMPO 3012/3013 5SM -SHRA OVC050
     FM301400 35012KT P6SM OVC040
     FM301800 35012G18KT P6SM VCSH OVC040
      TEMPO 3021/0101 5SM -SHRA BR OVC025
     FM010100 36010KT P6SM OVC035
     FM010600 35010KT P6SM OVC018=

USA.gov is the U.S. government's official web portal to all federal, state and local government web resources and services.